Time;durP1;ratioP1;P1;durP2;ratioP2;P2;SDS_P1;SDS_P2;PMS_P1;PMS_P2;Temp;Humidity;BMP_temperature;BMP_pressure;BME280_temperature;BME280_humidity;BME280_pressure;Samples;Min_cycle;Max_cycle;Signal;HPM_P1;HPM_P2
2023/05/07 00:08:14;;;;;;;;;;;;;;;11.59;100.00;97546.41;18551680;32;20324;-57
2023/05/07 00:18:16;;;;;;;;;;;;;;;11.49;100.00;97564.31;18565237;32;19980;-57
2023/05/07 00:28:18;;;;;;;;;;;;;;;11.40;100.00;97567.88;18550744;32;19988;-56
2023/05/07 00:38:20;;;;;;;;;;;;;;;11.27;100.00;97569.31;18549772;32;19956;-56
2023/05/07 00:48:24;;;;;;;;;;;;;;;11.12;100.00;97559.34;18563484;32;19961;-56
2023/05/07 00:58:26;;;;;;;;;;;;;;;11.02;100.00;97562.91;18562873;31;19971;-56
2023/05/07 01:08:29;;;;;;;;;;;;;;;10.94;100.00;97560.75;18562891;32;19961;-56
2023/05/07 01:18:32;;;;;;;;;;;;;;;10.85;100.00;97569.44;18547404;32;19952;-55
2023/05/07 01:28:34;;;;;;;;;;;;;;;10.76;100.00;97557.56;18561750;32;20000;-57
2023/05/07 01:38:37;;;;;;;;;;;;;;;10.63;100.00;97558.12;18560839;32;19986;-55
2023/05/07 01:48:40;;;;;;;;;;;;;;;10.49;100.00;97552.47;18547102;32;19960;-56
2023/05/07 01:58:42;;;;;;;;;;;;;;;10.38;100.00;97554.34;18561021;32;19967;-56
2023/05/07 02:08:44;;;;;;;;;;;;;;;10.31;100.00;97553.81;18560100;32;19960;-56
2023/05/07 02:18:47;;;;;;;;;;;;;;;10.22;100.00;97544.59;18559985;32;19960;-56
2023/05/07 02:28:49;;;;;;;;;;;;;;;10.14;100.00;97544.06;18561930;32;19975;-56
2023/05/07 02:38:51;;;;;;;;;;;;;;;10.11;100.00;97550.03;18571445;32;19993;-56
2023/05/07 02:48:54;;;;;;;;;;;;;;;10.06;100.00;97550.03;18570818;32;20317;-57
2023/05/07 02:58:56;;;;;;;;;;;;;;;9.99;100.00;97555.69;18570400;32;20012;-56
2023/05/07 03:08:58;;;;;;;;;;;;;;;10.01;100.00;97558.91;18569677;32;19999;-56
2023/05/07 03:19:01;;;;;;;;;;;;;;;10.01;100.00;97552.72;18569520;32;19988;-56
2023/05/07 03:29:03;;;;;;;;;;;;;;;9.98;100.00;97547.84;18568862;32;19961;-56
2023/05/07 03:39:05;;;;;;;;;;;;;;;9.95;100.00;97537.59;18567293;31;19964;-56
2023/05/07 03:49:08;;;;;;;;;;;;;;;9.94;100.00;97538.66;18552832;32;20012;-57
2023/05/07 03:59:10;;;;;;;;;;;;;;;9.89;100.00;97546.75;18566868;32;19960;-56
2023/05/07 04:09:12;;;;;;;;;;;;;;;9.87;100.00;97554.31;18566395;32;19953;-56
2023/05/07 04:19:14;;;;;;;;;;;;;;;9.92;100.00;97578.63;18565647;32;19944;-55
2023/05/07 04:29:16;;;;;;;;;;;;;;;10.07;100.00;97575.97;18564770;32;20065;-55
2023/05/07 04:39:19;;;;;;;;;;;;;;;10.43;100.00;97607.59;18563778;32;19949;-56
2023/05/07 04:49:21;;;;;;;;;;;;;;;10.74;100.00;97621.09;18563431;32;19971;-56
2023/05/07 04:59:23;;;;;;;;;;;;;;;10.92;100.00;97638.66;18562827;32;19953;-56
2023/05/07 05:09:26;;;;;;;;;;;;;;;11.13;100.00;97632.13;18562527;32;19971;-56
2023/05/07 05:19:28;;;;;;;;;;;;;;;11.41;100.00;97648.81;18562399;32;19956;-55
2023/05/07 05:29:33;;;;;;;;;;;;;;;11.67;100.00;97657.66;18561358;31;20355;-56
2023/05/07 05:39:36;;;;;;;;;;;;;;;11.96;100.00;97662.47;18546831;32;19960;-56
2023/05/07 05:49:39;;;;;;;;;;;;;;;12.02;100.00;97677.59;18545969;32;19956;-55
2023/05/07 05:59:41;;;;;;;;;;;;;;;12.01;100.00;97675.97;18560563;32;19972;-55
2023/05/07 06:09:44;;;;;;;;;;;;;;;12.31;100.00;97671.47;18572067;32;20011;-54
2023/05/07 06:19:46;;;;;;;;;;;;;;;12.93;100.00;97681.84;18572826;32;20365;-55
2023/05/07 06:29:48;;;;;;;;;;;;;;;13.63;100.00;97680.59;18572096;32;20013;-55
2023/05/07 06:39:51;;;;;;;;;;;;;;;14.48;100.00;97685.47;18557122;32;20272;-57
2023/05/07 06:49:53;;;;;;;;;;;;;;;15.38;100.00;97699.00;18570780;32;19983;-57
2023/05/07 06:59:55;;;;;;;;;;;;;;;16.21;100.00;97690.00;18570459;32;19944;-57
2023/05/07 07:09:58;;;;;;;;;;;;;;;16.73;100.00;97676.00;18569830;32;19988;-56
2023/05/07 07:20:00;;;;;;;;;;;;;;;17.03;100.00;97679.91;18554323;32;19960;-57
2023/05/07 07:30:03;;;;;;;;;;;;;;;17.62;100.00;97696.16;18568593;32;19953;-57
2023/05/07 07:40:06;;;;;;;;;;;;;;;17.73;100.00;97687.66;18553296;32;19971;-57
2023/05/07 07:50:08;;;;;;;;;;;;;;;18.16;100.00;97687.00;18553012;32;19956;-57
2023/05/07 08:00:12;;;;;;;;;;;;;;;18.39;100.00;97692.31;18566818;32;20000;-56
2023/05/07 08:10:20;;;;;;;;;;;;;;;18.79;100.00;97701.19;18566059;31;19968;-57
2023/05/07 08:20:23;;;;;;;;;;;;;;;19.17;100.00;97699.72;18565244;32;19993;-57
2023/05/07 08:30:26;;;;;;;;;;;;;;;19.65;100.00;97692.28;18564859;32;19979;-57
2023/05/07 08:40:29;;;;;;;;;;;;;;;19.92;100.00;97710.28;18564143;32;20276;-57
2023/05/07 08:50:31;;;;;;;;;;;;;;;19.87;100.00;97715.97;18563757;32;19999;-57
2023/05/07 09:00:36;;;;;;;;;;;;;;;20.22;100.00;97740.47;18548845;32;19992;-58
2023/05/07 09:10:38;;;;;;;;;;;;;;;20.81;98.91;97730.56;18547969;32;19997;-58
2023/05/07 09:20:41;;;;;;;;;;;;;;;21.42;91.56;97731.91;18561951;32;19989;-58
2023/05/07 09:30:44;;;;;;;;;;;;;;;21.46;94.50;97733.66;18561113;32;19993;-58
2023/05/07 09:40:47;;;;;;;;;;;;;;;21.53;98.16;97738.66;18560509;32;19952;-57
2023/05/07 09:50:51;;;;;;;;;;;;;;;21.50;94.88;97736.53;18560861;32;20010;-57
2023/05/07 10:00:55;;;;;;;;;;;;;;;21.58;99.92;97746.66;18560682;31;19985;-57
2023/05/07 10:10:58;;;;;;;;;;;;;;;22.81;96.52;97764.34;18559778;32;20012;-58
2023/05/07 10:21:08;;;;;;;;;;;;;;;22.97;80.73;97754.19;18532729;32;20329;-58
2023/05/07 10:31:18;;;;;;;;;;;;;;;23.08;78.66;97759.19;18559991;32;19961;-57
2023/05/07 10:41:21;;;;;;;;;;;;;;;23.51;79.18;97749.38;18559421;32;19961;-57
2023/05/07 10:51:24;;;;;;;;;;;;;;;23.41;81.78;97766.44;18563429;32;20007;-57
2023/05/07 11:01:45;;;;;;;;;;;;;;;22.68;83.28;97758.84;18570280;32;20268;-57
2023/05/07 11:11:52;;;;;;;;;;;;;;;22.75;87.75;97743.66;18569899;32;19972;-57
2023/05/07 11:21:55;;;;;;;;;;;;;;;22.85;88.86;97743.19;18555216;32;20329;-57
2023/05/07 11:32:00;;;;;;;;;;;;;;;22.97;88.44;97770.72;18568451;32;19985;-58
2023/05/07 11:42:03;;;;;;;;;;;;;;;22.39;89.84;97765.44;18554194;32;20310;-57
2023/05/07 11:52:06;;;;;;;;;;;;;;;22.05;94.91;97759.25;18567062;32;20336;-57
2023/05/07 12:02:09;;;;;;;;;;;;;;;20.95;100.00;97777.00;18566616;32;19986;-55
2023/05/07 12:12:15;;;;;;;;;;;;;;;19.79;100.00;97805.37;18565763;32;19994;-58
2023/05/07 12:22:19;;;;;;;;;;;;;;;18.61;100.00;97784.50;18551435;32;19961;-57
2023/05/07 12:32:22;;;;;;;;;;;;;;;17.88;100.00;97793.91;18550750;32;20052;-58
2023/05/07 12:42:26;;;;;;;;;;;;;;;17.69;100.00;97793.31;18564221;31;19964;-58
2023/05/07 12:52:31;;;;;;;;;;;;;;;18.01;100.00;97800.41;18550001;32;20364;-58
2023/05/07 13:02:35;;;;;;;;;;;;;;;18.66;100.00;97802.69;18563029;32;20329;-58
2023/05/07 13:12:38;;;;;;;;;;;;;;;19.28;100.00;97787.88;18562166;32;20015;-57
2023/05/07 13:22:41;;;;;;;;;;;;;;;21.70;100.00;97778.91;18562455;32;20004;-56
2023/05/07 13:32:45;;;;;;;;;;;;;;;22.52;100.00;97776.47;18547495;32;20008;-57
2023/05/07 13:42:48;;;;;;;;;;;;;;;23.43;100.00;97767.69;18546926;32;19982;-56
2023/05/07 13:52:50;;;;;;;;;;;;;;;23.93;99.91;97765.47;18561200;32;19952;-57
2023/05/07 14:02:54;;;;;;;;;;;;;;;22.49;100.00;97753.16;18560406;32;19948;-56
2023/05/07 14:12:57;;;;;;;;;;;;;;;21.79;100.00;97734.78;18560198;32;20323;-57
2023/05/07 14:23:00;;;;;;;;;;;;;;;22.98;100.00;97744.75;18561473;32;20004;-58
2023/05/07 14:33:03;;;;;;;;;;;;;;;24.69;97.67;97756.19;18572022;32;19953;-57
2023/05/07 14:43:05;;;;;;;;;;;;;;;25.22;79.85;97764.00;18571544;32;19979;-57
2023/05/07 14:53:08;;;;;;;;;;;;;;;25.82;84.62;97771.06;18571127;32;19991;-57
2023/05/07 15:03:11;;;;;;;;;;;;;;;25.24;73.25;97772.72;18570462;32;19980;-57
2023/05/07 15:13:14;;;;;;;;;;;;;;;24.19;73.26;97775.97;18555741;32;19990;-57
2023/05/07 15:23:17;;;;;;;;;;;;;;;23.27;94.94;97786.16;18569027;31;20017;-56
2023/05/07 15:33:20;;;;;;;;;;;;;;;22.22;100.00;97782.97;18541170;31;19960;-57
2023/05/07 15:43:24;;;;;;;;;;;;;;;21.38;100.00;97783.25;18567405;32;19979;-57
2023/05/07 15:53:27;;;;;;;;;;;;;;;20.74;100.00;97793.50;18567300;32;20016;-56
2023/05/07 16:03:30;;;;;;;;;;;;;;;19.98;100.00;97791.31;18566813;32;20343;-55
2023/05/07 16:13:33;;;;;;;;;;;;;;;19.34;100.00;97802.25;18551715;32;19957;-55
2023/05/07 16:23:37;;;;;;;;;;;;;;;18.90;100.00;97807.75;18551581;32;19948;-55
2023/05/07 16:33:40;;;;;;;;;;;;;;;18.60;100.00;97822.00;18564432;31;19944;-57
2023/05/07 16:43:43;;;;;;;;;;;;;;;18.21;100.00;97820.94;18550465;32;20379;-57
2023/05/07 16:53:47;;;;;;;;;;;;;;;18.03;100.00;97808.31;18562820;32;19965;-57
2023/05/07 17:03:49;;;;;;;;;;;;;;;17.96;100.00;97822.44;18563213;32;19975;-56
2023/05/07 17:13:53;;;;;;;;;;;;;;;17.77;100.00;97839.03;18562261;32;19964;-56
2023/05/07 17:23:56;;;;;;;;;;;;;;;17.58;100.00;97853.75;18562088;32;20282;-57
2023/05/07 17:33:59;;;;;;;;;;;;;;;17.31;100.00;97871.06;18547324;32;20018;-56
2023/05/07 17:44:02;;;;;;;;;;;;;;;16.93;100.00;97877.62;18560962;32;20292;-54
2023/05/07 17:54:05;;;;;;;;;;;;;;;16.58;100.00;97890.91;18560896;32;19967;-57
2023/05/07 18:04:09;;;;;;;;;;;;;;;16.30;100.00;97906.47;18555750;31;20388;-57
2023/05/07 18:14:12;;;;;;;;;;;;;;;16.08;100.00;97918.03;18559224;32;19957;-54
2023/05/07 18:24:15;;;;;;;;;;;;;;;15.87;100.00;97933.97;18573051;32;19953;-55
2023/05/07 18:34:18;;;;;;;;;;;;;;;15.66;100.00;97944.34;18572385;31;19992;-54
2023/05/07 18:44:22;;;;;;;;;;;;;;;15.47;100.00;97953.34;18557097;32;20043;-55
2023/05/07 18:54:25;;;;;;;;;;;;;;;15.28;100.00;97955.25;18570890;32;19964;-56
2023/05/07 19:04:29;;;;;;;;;;;;;;;15.11;100.00;97961.22;18570301;32;20313;-56
2023/05/07 19:14:31;;;;;;;;;;;;;;;15.00;100.00;97965.97;18569127;32;20264;-57
2023/05/07 19:24:36;;;;;;;;;;;;;;;14.89;100.00;97976.97;18555790;32;19985;-54
2023/05/07 19:34:41;;;;;;;;;;;;;;;14.79;100.00;97988.00;18568211;31;20284;-54
2023/05/07 19:44:45;;;;;;;;;;;;;;;14.72;100.00;97999.22;18568139;32;20000;-55
2023/05/07 19:54:49;;;;;;;;;;;;;;;14.67;100.00;97998.47;18552890;31;20302;-56
2023/05/07 20:04:53;;;;;;;;;;;;;;;14.61;100.00;98008.56;18552996;32;19952;-55
2023/05/07 20:14:56;;;;;;;;;;;;;;;14.55;100.00;98021.44;18566340;32;19971;-56
2023/05/07 20:25:02;;;;;;;;;;;;;;;14.49;100.00;98025.28;18565291;32;19956;-57
2023/05/07 20:35:06;;;;;;;;;;;;;;;14.47;100.00;98026.66;18564815;31;19957;-55
2023/05/07 20:45:10;;;;;;;;;;;;;;;14.46;100.00;98033.19;18550382;32;19976;-56
2023/05/07 20:55:16;;;;;;;;;;;;;;;14.43;100.00;98040.06;18563607;32;20353;-54
2023/05/07 21:05:24;;;;;;;;;;;;;;;14.40;100.00;98046.88;18563159;32;19964;-56
2023/05/07 21:15:32;;;;;;;;;;;;;;;14.36;100.00;98058.59;18562914;32;19960;-57
2023/05/07 21:25:46;;;;;;;;;;;;;;;14.32;100.00;98060.25;18562281;32;19990;-56
2023/05/07 21:36:01;;;;;;;;;;;;;;;14.28;100.00;98061.91;18560767;32;20336;-55
2023/05/07 21:46:06;;;;;;;;;;;;;;;14.23;100.00;98069.03;18561369;32;19952;-56
2023/05/07 21:56:15;;;;;;;;;;;;;;;14.19;100.00;98067.97;18560897;32;19979;-55
2023/05/07 22:06:21;;;;;;;;;;;;;;;14.14;100.00;98078.91;18561038;32;19989;-55
2023/05/07 22:16:25;;;;;;;;;;;;;;;14.10;100.00;98074.31;18560615;32;19976;-55
2023/05/07 22:26:33;;;;;;;;;;;;;;;14.04;100.00;98071.63;18560491;32;19957;-55
2023/05/07 22:36:40;;;;;;;;;;;;;;;13.98;100.00;98071.94;18559223;31;19945;-52
2023/05/07 22:46:51;;;;;;;;;;;;;;;13.93;100.00;98080.13;18564114;32;19952;-54
2023/05/07 22:56:58;;;;;;;;;;;;;;;13.87;100.00;98077.44;18570979;32;19987;-55
2023/05/07 23:07:02;;;;;;;;;;;;;;;13.85;100.00;98076.94;18570663;32;19956;-55
2023/05/07 23:17:07;;;;;;;;;;;;;;;13.84;100.00;98067.13;18555981;32;19952;-55
2023/05/07 23:27:13;;;;;;;;;;;;;;;13.83;100.00;98064.72;18569122;32;19972;-55
2023/05/07 23:37:23;;;;;;;;;;;;;;;13.80;100.00;98063.38;18568358;32;20021;-54
2023/05/07 23:47:27;;;;;;;;;;;;;;;13.76;100.00;98062.31;18568468;32;20008;-57
2023/05/07 23:57:31;;;;;;;;;;;;;;;13.74;100.00;98059.03;18566801;32;20020;-56
